sensor_id;sensor_type;location;lat;lon;timestamp;P1;durP1;ratioP1;P2;durP2;ratioP2
3613;SDS011;1821;50.936;6.854;2023-04-25T00:00:03;7.97;;;4.82;;
3613;SDS011;1821;50.936;6.854;2023-04-25T00:00:48;8.07;;;5.03;;
3613;SDS011;1821;50.936;6.854;2023-04-25T00:01:29;9.73;;;5.22;;
3613;SDS011;1821;50.936;6.854;2023-04-25T00:02:13;8.40;;;5.10;;
3613;SDS011;1821;50.936;6.854;2023-04-25T00:02:56;9.00;;;5.32;;
3613;SDS011;1821;50.936;6.854;2023-04-25T00:03:38;11.68;;;5.68;;
3613;SDS011;1821;50.936;6.854;2023-04-25T00:04:21;11.05;;;5.22;;
3613;SDS011;1821;50.936;6.854;2023-04-25T00:05:03;10.95;;;5.35;;
3613;SDS011;1821;50.936;6.854;2023-04-25T00:05:46;11.15;;;5.20;;
3613;SDS011;1821;50.936;6.854;2023-04-25T00:06:31;12.48;;;5.50;;
3613;SDS011;1821;50.936;6.854;2023-04-25T00:07:14;13.40;;;5.38;;
3613;SDS011;1821;50.936;6.854;2023-04-25T00:07:56;12.50;;;5.30;;
3613;SDS011;1821;50.936;6.854;2023-04-25T00:08:39;12.95;;;5.10;;
3613;SDS011;1821;50.936;6.854;2023-04-25T00:09:21;11.77;;;6.18;;
3613;SDS011;1821;50.936;6.854;2023-04-25T00:10:03;11.88;;;6.50;;
3613;SDS011;1821;50.936;6.854;2023-04-25T00:10:46;13.10;;;6.20;;
3613;SDS011;1821;50.936;6.854;2023-04-25T00:11:28;11.73;;;5.00;;
3613;SDS011;1821;50.936;6.854;2023-04-25T00:12:11;10.25;;;5.15;;
3613;SDS011;1821;50.936;6.854;2023-04-25T00:12:53;12.85;;;5.70;;
3613;SDS011;1821;50.936;6.854;2023-04-25T00:13:35;11.55;;;6.07;;
3613;SDS011;1821;50.936;6.854;2023-04-25T00:14:17;10.18;;;5.57;;
3613;SDS011;1821;50.936;6.854;2023-04-25T00:14:59;10.25;;;5.50;;
3613;SDS011;1821;50.936;6.854;2023-04-25T00:15:43;12.40;;;5.40;;
3613;SDS011;1821;50.936;6.854;2023-04-25T00:16:25;9.95;;;5.07;;
3613;SDS011;1821;50.936;6.854;2023-04-25T00:17:08;10.35;;;4.88;;
3613;SDS011;1821;50.936;6.854;2023-04-25T00:17:50;10.35;;;5.00;;
3613;SDS011;1821;50.936;6.854;2023-04-25T00:18:34;11.00;;;5.45;;
3613;SDS011;1821;50.936;6.854;2023-04-25T00:19:18;12.07;;;5.75;;
3613;SDS011;1821;50.936;6.854;2023-04-25T00:20:00;13.98;;;5.75;;
3613;SDS011;1821;50.936;6.854;2023-04-25T00:20:48;17.20;;;6.53;;
3613;SDS011;1821;50.936;6.854;2023-04-25T00:21:31;12.10;;;5.45;;
3613;SDS011;1821;50.936;6.854;2023-04-25T00:22:12;10.50;;;5.00;;
3613;SDS011;1821;50.936;6.854;2023-04-25T00:22:54;8.57;;;5.30;;
3613;SDS011;1821;50.936;6.854;2023-04-25T00:23:37;11.40;;;5.95;;
3613;SDS011;1821;50.936;6.854;2023-04-25T00:24:20;10.60;;;5.80;;
3613;SDS011;1821;50.936;6.854;2023-04-25T00:25:01;12.50;;;5.40;;
3613;SDS011;1821;50.936;6.854;2023-04-25T00:25:45;12.68;;;5.70;;
3613;SDS011;1821;50.936;6.854;2023-04-25T00:26:28;10.32;;;5.55;;
3613;SDS011;1821;50.936;6.854;2023-04-25T00:27:10;10.10;;;5.15;;
3613;SDS011;1821;50.936;6.854;2023-04-25T00:27:52;12.45;;;5.40;;
3613;SDS011;1821;50.936;6.854;2023-04-25T00:28:34;10.63;;;5.40;;
3613;SDS011;1821;50.936;6.854;2023-04-25T00:29:16;9.57;;;5.43;;
3613;SDS011;1821;50.936;6.854;2023-04-25T00:29:58;12.45;;;5.53;;
3613;SDS011;1821;50.936;6.854;2023-04-25T00:30:40;14.77;;;6.40;;
3613;SDS011;1821;50.936;6.854;2023-04-25T00:31:23;12.75;;;5.60;;
3613;SDS011;1821;50.936;6.854;2023-04-25T00:32:05;9.80;;;5.10;;
3613;SDS011;1821;50.936;6.854;2023-04-25T00:32:47;12.20;;;6.20;;
3613;SDS011;1821;50.936;6.854;2023-04-25T00:33:30;12.55;;;5.80;;
3613;SDS011;1821;50.936;6.854;2023-04-25T00:34:12;13.07;;;6.10;;
3613;SDS011;1821;50.936;6.854;2023-04-25T00:34:54;14.70;;;5.57;;
3613;SDS011;1821;50.936;6.854;2023-04-25T00:35:37;11.68;;;6.18;;
3613;SDS011;1821;50.936;6.854;2023-04-25T00:36:19;8.82;;;5.07;;
3613;SDS011;1821;50.936;6.854;2023-04-25T00:37:01;10.95;;;5.07;;
3613;SDS011;1821;50.936;6.854;2023-04-25T00:37:43;9.70;;;5.15;;
3613;SDS011;1821;50.936;6.854;2023-04-25T00:38:28;14.07;;;5.90;;
3613;SDS011;1821;50.936;6.854;2023-04-25T00:39:10;11.50;;;5.60;;
3613;SDS011;1821;50.936;6.854;2023-04-25T00:39:53;12.43;;;5.40;;
3613;SDS011;1821;50.936;6.854;2023-04-25T00:40:37;14.25;;;5.70;;
3613;SDS011;1821;50.936;6.854;2023-04-25T00:41:19;12.23;;;5.68;;
3613;SDS011;1821;50.936;6.854;2023-04-25T00:42:01;14.55;;;6.15;;
3613;SDS011;1821;50.936;6.854;2023-04-25T00:42:44;12.68;;;5.47;;
3613;SDS011;1821;50.936;6.854;2023-04-25T00:43:27;10.02;;;5.80;;
3613;SDS011;1821;50.936;6.854;2023-04-25T00:44:11;12.02;;;6.03;;
3613;SDS011;1821;50.936;6.854;2023-04-25T00:44:53;15.25;;;6.20;;
3613;SDS011;1821;50.936;6.854;2023-04-25T00:45:36;12.95;;;6.38;;
3613;SDS011;1821;50.936;6.854;2023-04-25T00:46:20;13.98;;;6.13;;
3613;SDS011;1821;50.936;6.854;2023-04-25T00:47:02;12.85;;;5.90;;
3613;SDS011;1821;50.936;6.854;2023-04-25T00:47:45;14.18;;;6.00;;
3613;SDS011;1821;50.936;6.854;2023-04-25T00:48:28;13.25;;;6.55;;
3613;SDS011;1821;50.936;6.854;2023-04-25T00:49:10;13.45;;;7.13;;
3613;SDS011;1821;50.936;6.854;2023-04-25T00:49:56;18.83;;;7.07;;
3613;SDS011;1821;50.936;6.854;2023-04-25T00:50:38;15.52;;;6.20;;
3613;SDS011;1821;50.936;6.854;2023-04-25T00:51:20;12.30;;;5.38;;
3613;SDS011;1821;50.936;6.854;2023-04-25T00:52:03;12.40;;;5.90;;
3613;SDS011;1821;50.936;6.854;2023-04-25T00:52:46;12.77;;;5.90;;
3613;SDS011;1821;50.936;6.854;2023-04-25T00:53:28;12.05;;;5.68;;
3613;SDS011;1821;50.936;6.854;2023-04-25T00:54:14;12.25;;;5.65;;
3613;SDS011;1821;50.936;6.854;2023-04-25T00:54:56;11.25;;;5.25;;
3613;SDS011;1821;50.936;6.854;2023-04-25T00:55:38;12.07;;;5.78;;
3613;SDS011;1821;50.936;6.854;2023-04-25T00:56:20;12.13;;;5.60;;
3613;SDS011;1821;50.936;6.854;2023-04-25T00:57:05;10.63;;;5.47;;
3613;SDS011;1821;50.936;6.854;2023-04-25T00:57:47;11.25;;;5.50;;
3613;SDS011;1821;50.936;6.854;2023-04-25T00:58:30;12.52;;;5.57;;
3613;SDS011;1821;50.936;6.854;2023-04-25T00:59:12;10.80;;;5.40;;
3613;SDS011;1821;50.936;6.854;2023-04-25T00:59:56;11.20;;;5.50;;
3613;SDS011;1821;50.936;6.854;2023-04-25T01:00:40;12.25;;;5.78;;
3613;SDS011;1821;50.936;6.854;2023-04-25T01:01:23;14.75;;;6.20;;
3613;SDS011;1821;50.936;6.854;2023-04-25T01:02:05;13.18;;;7.07;;
3613;SDS011;1821;50.936;6.854;2023-04-25T01:02:48;11.32;;;6.28;;
3613;SDS011;1821;50.936;6.854;2023-04-25T01:03:33;12.63;;;6.80;;
3613;SDS011;1821;50.936;6.854;2023-04-25T01:04:16;13.45;;;6.22;;
3613;SDS011;1821;50.936;6.854;2023-04-25T01:04:59;16.13;;;6.15;;
3613;SDS011;1821;50.936;6.854;2023-04-25T01:05:43;12.05;;;5.90;;
3613;SDS011;1821;50.936;6.854;2023-04-25T01:06:25;14.45;;;6.50;;
3613;SDS011;1821;50.936;6.854;2023-04-25T01:07:08;13.60;;;6.03;;
3613;SDS011;1821;50.936;6.854;2023-04-25T01:07:53;12.20;;;6.30;;
3613;SDS011;1821;50.936;6.854;2023-04-25T01:08:36;14.10;;;6.18;;
3613;SDS011;1821;50.936;6.854;2023-04-25T01:09:20;13.65;;;6.20;;
3613;SDS011;1821;50.936;6.854;2023-04-25T01:10:03;12.55;;;6.10;;
3613;SDS011;1821;50.936;6.854;2023-04-25T01:10:47;15.85;;;6.15;;
3613;SDS011;1821;50.936;6.854;2023-04-25T01:11:29;13.90;;;6.70;;
3613;SDS011;1821;50.936;6.854;2023-04-25T01:12:13;14.95;;;6.10;;
3613;SDS011;1821;50.936;6.854;2023-04-25T01:12:55;15.77;;;5.88;;
3613;SDS011;1821;50.936;6.854;2023-04-25T01:13:37;17.10;;;6.25;;
3613;SDS011;1821;50.936;6.854;2023-04-25T01:14:19;15.40;;;6.50;;
3613;SDS011;1821;50.936;6.854;2023-04-25T01:15:01;18.00;;;6.30;;
3613;SDS011;1821;50.936;6.854;2023-04-25T01:15:43;16.23;;;6.20;;
3613;SDS011;1821;50.936;6.854;2023-04-25T01:16:26;9.20;;;5.82;;
3613;SDS011;1821;50.936;6.854;2023-04-25T01:17:08;14.57;;;6.30;;
3613;SDS011;1821;50.936;6.854;2023-04-25T01:17:53;16.83;;;6.50;;
3613;SDS011;1821;50.936;6.854;2023-04-25T01:18:38;14.85;;;6.68;;
3613;SDS011;1821;50.936;6.854;2023-04-25T01:19:23;14.32;;;6.18;;
3613;SDS011;1821;50.936;6.854;2023-04-25T01:20:06;16.45;;;6.80;;
3613;SDS011;1821;50.936;6.854;2023-04-25T01:20:49;13.57;;;6.00;;
3613;SDS011;1821;50.936;6.854;2023-04-25T01:21:32;14.18;;;6.32;;
3613;SDS011;1821;50.936;6.854;2023-04-25T01:22:14;12.88;;;6.10;;
3613;SDS011;1821;50.936;6.854;2023-04-25T01:22:56;11.93;;;6.30;;
3613;SDS011;1821;50.936;6.854;2023-04-25T01:23:39;12.95;;;5.70;;
3613;SDS011;1821;50.936;6.854;2023-04-25T01:24:24;12.95;;;5.97;;
3613;SDS011;1821;50.936;6.854;2023-04-25T01:25:07;15.65;;;6.30;;
3613;SDS011;1821;50.936;6.854;2023-04-25T01:25:49;14.05;;;6.35;;
3613;SDS011;1821;50.936;6.854;2023-04-25T01:26:32;13.52;;;6.38;;
3613;SDS011;1821;50.936;6.854;2023-04-25T01:27:15;23.02;;;7.65;;
3613;SDS011;1821;50.936;6.854;2023-04-25T01:27:58;15.90;;;6.93;;
3613;SDS011;1821;50.936;6.854;2023-04-25T01:28:40;12.00;;;5.40;;
3613;SDS011;1821;50.936;6.854;2023-04-25T01:29:22;13.23;;;5.85;;
3613;SDS011;1821;50.936;6.854;2023-04-25T01:30:06;11.50;;;6.17;;
3613;SDS011;1821;50.936;6.854;2023-04-25T01:30:48;13.37;;;5.80;;
3613;SDS011;1821;50.936;6.854;2023-04-25T01:31:31;11.20;;;6.38;;
3613;SDS011;1821;50.936;6.854;2023-04-25T01:32:14;14.68;;;6.68;;
3613;SDS011;1821;50.936;6.854;2023-04-25T01:32:57;15.85;;;6.75;;
3613;SDS011;1821;50.936;6.854;2023-04-25T01:33:40;15.63;;;6.80;;
3613;SDS011;1821;50.936;6.854;2023-04-25T01:34:22;15.98;;;6.95;;
3613;SDS011;1821;50.936;6.854;2023-04-25T01:35:04;13.65;;;6.20;;
3613;SDS011;1821;50.936;6.854;2023-04-25T01:35:51;8.88;;;6.00;;
3613;SDS011;1821;50.936;6.854;2023-04-25T01:36:33;12.30;;;6.30;;
3613;SDS011;1821;50.936;6.854;2023-04-25T01:37:18;12.48;;;6.15;;
3613;SDS011;1821;50.936;6.854;2023-04-25T01:38:00;16.08;;;6.00;;
3613;SDS011;1821;50.936;6.854;2023-04-25T01:38:42;14.00;;;6.00;;
3613;SDS011;1821;50.936;6.854;2023-04-25T01:39:25;15.75;;;6.53;;
3613;SDS011;1821;50.936;6.854;2023-04-25T01:40:10;15.55;;;7.00;;
3613;SDS011;1821;50.936;6.854;2023-04-25T01:40:53;19.15;;;7.57;;
3613;SDS011;1821;50.936;6.854;2023-04-25T01:41:38;16.40;;;6.88;;
3613;SDS011;1821;50.936;6.854;2023-04-25T01:42:20;16.25;;;6.65;;
3613;SDS011;1821;50.936;6.854;2023-04-25T01:43:02;14.10;;;6.13;;
3613;SDS011;1821;50.936;6.854;2023-04-25T01:43:45;16.10;;;6.85;;
3613;SDS011;1821;50.936;6.854;2023-04-25T01:44:27;15.93;;;6.47;;
3613;SDS011;1821;50.936;6.854;2023-04-25T01:45:09;15.30;;;7.20;;
3613;SDS011;1821;50.936;6.854;2023-04-25T01:45:54;12.60;;;6.55;;
3613;SDS011;1821;50.936;6.854;2023-04-25T01:46:38;14.60;;;6.25;;
3613;SDS011;1821;50.936;6.854;2023-04-25T01:47:20;14.45;;;6.13;;
3613;SDS011;1821;50.936;6.854;2023-04-25T01:48:02;12.35;;;6.10;;
3613;SDS011;1821;50.936;6.854;2023-04-25T01:48:45;17.20;;;6.78;;
3613;SDS011;1821;50.936;6.854;2023-04-25T01:49:26;13.15;;;6.50;;
3613;SDS011;1821;50.936;6.854;2023-04-25T01:50:09;12.30;;;6.70;;
3613;SDS011;1821;50.936;6.854;2023-04-25T01:50:52;10.13;;;5.82;;
3613;SDS011;1821;50.936;6.854;2023-04-25T01:51:34;19.77;;;6.25;;
3613;SDS011;1821;50.936;6.854;2023-04-25T01:52:18;19.33;;;6.93;;
3613;SDS011;1821;50.936;6.854;2023-04-25T01:53:00;17.38;;;6.55;;
3613;SDS011;1821;50.936;6.854;2023-04-25T01:53:43;15.77;;;6.07;;
3613;SDS011;1821;50.936;6.854;2023-04-25T01:54:25;17.80;;;6.65;;
3613;SDS011;1821;50.936;6.854;2023-04-25T01:55:07;17.55;;;7.30;;
3613;SDS011;1821;50.936;6.854;2023-04-25T01:55:50;16.52;;;7.32;;
3613;SDS011;1821;50.936;6.854;2023-04-25T01:56:32;12.77;;;6.82;;
3613;SDS011;1821;50.936;6.854;2023-04-25T01:57:17;12.02;;;6.25;;
3613;SDS011;1821;50.936;6.854;2023-04-25T01:57:59;14.20;;;6.78;;
3613;SDS011;1821;50.936;6.854;2023-04-25T01:58:43;11.68;;;6.63;;
3613;SDS011;1821;50.936;6.854;2023-04-25T01:59:25;14.50;;;6.63;;
3613;SDS011;1821;50.936;6.854;2023-04-25T02:00:08;13.48;;;6.72;;
3613;SDS011;1821;50.936;6.854;2023-04-25T02:00:50;13.52;;;6.50;;
3613;SDS011;1821;50.936;6.854;2023-04-25T02:01:32;15.13;;;6.78;;
3613;SDS011;1821;50.936;6.854;2023-04-25T02:02:14;17.05;;;7.45;;
3613;SDS011;1821;50.936;6.854;2023-04-25T02:02:59;13.75;;;6.45;;
3613;SDS011;1821;50.936;6.854;2023-04-25T02:03:41;15.90;;;6.88;;
3613;SDS011;1821;50.936;6.854;2023-04-25T02:04:23;14.20;;;6.70;;
3613;SDS011;1821;50.936;6.854;2023-04-25T02:05:06;12.88;;;6.57;;
3613;SDS011;1821;50.936;6.854;2023-04-25T02:05:48;15.52;;;6.65;;
3613;SDS011;1821;50.936;6.854;2023-04-25T02:06:30;16.90;;;7.25;;
3613;SDS011;1821;50.936;6.854;2023-04-25T02:07:12;17.85;;;7.35;;
3613;SDS011;1821;50.936;6.854;2023-04-25T02:07:54;13.13;;;7.10;;
3613;SDS011;1821;50.936;6.854;2023-04-25T02:08:36;10.70;;;6.22;;
3613;SDS011;1821;50.936;6.854;2023-04-25T02:09:18;12.10;;;5.90;;
3613;SDS011;1821;50.936;6.854;2023-04-25T02:10:01;12.65;;;6.50;;
3613;SDS011;1821;50.936;6.854;2023-04-25T02:10:43;11.70;;;6.13;;
3613;SDS011;1821;50.936;6.854;2023-04-25T02:11:25;13.05;;;6.60;;
3613;SDS011;1821;50.936;6.854;2023-04-25T02:12:08;13.82;;;6.28;;
3613;SDS011;1821;50.936;6.854;2023-04-25T02:12:51;17.33;;;6.07;;
3613;SDS011;1821;50.936;6.854;2023-04-25T02:13:33;10.73;;;6.00;;
3613;SDS011;1821;50.936;6.854;2023-04-25T02:14:15;12.07;;;6.68;;
3613;SDS011;1821;50.936;6.854;2023-04-25T02:14:57;18.65;;;6.72;;
3613;SDS011;1821;50.936;6.854;2023-04-25T02:15:39;13.32;;;6.05;;
3613;SDS011;1821;50.936;6.854;2023-04-25T02:16:22;12.00;;;6.10;;
3613;SDS011;1821;50.936;6.854;2023-04-25T02:17:06;11.93;;;6.30;;
3613;SDS011;1821;50.936;6.854;2023-04-25T02:17:49;10.30;;;5.95;;
3613;SDS011;1821;50.936;6.854;2023-04-25T02:18:31;17.70;;;6.72;;
3613;SDS011;1821;50.936;6.854;2023-04-25T02:19:14;15.90;;;6.45;;
3613;SDS011;1821;50.936;6.854;2023-04-25T02:19:56;13.73;;;5.95;;
3613;SDS011;1821;50.936;6.854;2023-04-25T02:20:38;13.13;;;5.97;;
3613;SDS011;1821;50.936;6.854;2023-04-25T02:21:20;14.27;;;6.68;;
3613;SDS011;1821;50.936;6.854;2023-04-25T02:22:03;14.60;;;6.20;;
3613;SDS011;1821;50.936;6.854;2023-04-25T02:22:45;12.85;;;5.72;;
3613;SDS011;1821;50.936;6.854;2023-04-25T02:23:27;11.98;;;5.90;;
3613;SDS011;1821;50.936;6.854;2023-04-25T02:24:10;13.85;;;6.55;;
3613;SDS011;1821;50.936;6.854;2023-04-25T02:24:53;11.07;;;6.60;;
3613;SDS011;1821;50.936;6.854;2023-04-25T02:25:36;14.30;;;5.57;;
3613;SDS011;1821;50.936;6.854;2023-04-25T02:26:17;13.70;;;6.45;;
3613;SDS011;1821;50.936;6.854;2023-04-25T02:27:00;11.95;;;6.22;;
3613;SDS011;1821;50.936;6.854;2023-04-25T02:27:42;11.38;;;6.03;;
3613;SDS011;1821;50.936;6.854;2023-04-25T02:28:25;11.27;;;5.43;;
3613;SDS011;1821;50.936;6.854;2023-04-25T02:29:07;12.05;;;5.72;;
3613;SDS011;1821;50.936;6.854;2023-04-25T02:29:50;12.77;;;5.80;;
3613;SDS011;1821;50.936;6.854;2023-04-25T02:30:33;12.52;;;5.13;;
3613;SDS011;1821;50.936;6.854;2023-04-25T02:31:16;12.20;;;5.25;;
3613;SDS011;1821;50.936;6.854;2023-04-25T02:31:58;12.75;;;5.10;;
3613;SDS011;1821;50.936;6.854;2023-04-25T02:32:40;19.55;;;5.63;;
3613;SDS011;1821;50.936;6.854;2023-04-25T02:33:22;15.85;;;5.95;;
3613;SDS011;1821;50.936;6.854;2023-04-25T02:34:04;13.68;;;5.60;;
3613;SDS011;1821;50.936;6.854;2023-04-25T02:34:46;12.85;;;5.15;;
3613;SDS011;1821;50.936;6.854;2023-04-25T02:35:29;11.95;;;4.85;;
3613;SDS011;1821;50.936;6.854;2023-04-25T02:36:11;12.43;;;5.22;;
3613;SDS011;1821;50.936;6.854;2023-04-25T02:36:52;14.18;;;5.60;;
3613;SDS011;1821;50.936;6.854;2023-04-25T02:37:35;18.58;;;6.22;;
3613;SDS011;1821;50.936;6.854;2023-04-25T02:38:20;11.98;;;5.10;;
3613;SDS011;1821;50.936;6.854;2023-04-25T02:39:02;9.98;;;5.63;;
3613;SDS011;1821;50.936;6.854;2023-04-25T02:39:44;10.02;;;5.25;;
3613;SDS011;1821;50.936;6.854;2023-04-25T02:40:26;11.25;;;4.95;;
3613;SDS011;1821;50.936;6.854;2023-04-25T02:41:08;13.13;;;4.78;;
3613;SDS011;1821;50.936;6.854;2023-04-25T02:41:52;17.17;;;5.07;;
3613;SDS011;1821;50.936;6.854;2023-04-25T02:42:35;16.50;;;5.57;;
3613;SDS011;1821;50.936;6.854;2023-04-25T02:43:17;9.65;;;5.50;;
3613;SDS011;1821;50.936;6.854;2023-04-25T02:43:59;8.75;;;4.45;;
3613;SDS011;1821;50.936;6.854;2023-04-25T02:44:41;12.25;;;5.20;;
3613;SDS011;1821;50.936;6.854;2023-04-25T02:45:22;14.27;;;5.80;;
3613;SDS011;1821;50.936;6.854;2023-04-25T02:46:04;15.73;;;5.30;;
3613;SDS011;1821;50.936;6.854;2023-04-25T02:46:47;14.00;;;4.90;;
3613;SDS011;1821;50.936;6.854;2023-04-25T02:47:30;10.05;;;4.90;;
3613;SDS011;1821;50.936;6.854;2023-04-25T02:48:13;12.10;;;5.45;;
3613;SDS011;1821;50.936;6.854;2023-04-25T02:48:55;15.20;;;6.50;;
3613;SDS011;1821;50.936;6.854;2023-04-25T02:49:37;13.30;;;5.45;;
3613;SDS011;1821;50.936;6.854;2023-04-25T02:50:19;13.98;;;5.25;;
3613;SDS011;1821;50.936;6.854;2023-04-25T02:51:01;15.35;;;5.40;;
3613;SDS011;1821;50.936;6.854;2023-04-25T02:51:43;13.80;;;5.15;;
3613;SDS011;1821;50.936;6.854;2023-04-25T02:52:25;12.27;;;5.18;;
3613;SDS011;1821;50.936;6.854;2023-04-25T02:53:07;14.38;;;5.80;;
3613;SDS011;1821;50.936;6.854;2023-04-25T02:53:51;11.63;;;6.00;;
3613;SDS011;1821;50.936;6.854;2023-04-25T02:54:34;10.07;;;5.40;;
3613;SDS011;1821;50.936;6.854;2023-04-25T02:55:16;12.77;;;5.78;;
3613;SDS011;1821;50.936;6.854;2023-04-25T02:55:57;18.42;;;6.07;;
3613;SDS011;1821;50.936;6.854;2023-04-25T02:56:40;14.25;;;5.93;;
3613;SDS011;1821;50.936;6.854;2023-04-25T02:57:22;10.20;;;5.72;;
3613;SDS011;1821;50.936;6.854;2023-04-25T02:58:06;11.07;;;6.18;;
3613;SDS011;1821;50.936;6.854;2023-04-25T02:58:50;15.43;;;6.75;;
3613;SDS011;1821;50.936;6.854;2023-04-25T02:59:33;12.57;;;6.28;;
3613;SDS011;1821;50.936;6.854;2023-04-25T03:00:15;12.35;;;6.05;;
3613;SDS011;1821;50.936;6.854;2023-04-25T03:00:57;12.75;;;5.53;;
3613;SDS011;1821;50.936;6.854;2023-04-25T03:01:39;10.20;;;6.30;;
3613;SDS011;1821;50.936;6.854;2023-04-25T03:02:21;11.60;;;5.95;;
3613;SDS011;1821;50.936;6.854;2023-04-25T03:03:03;13.60;;;6.10;;
3613;SDS011;1821;50.936;6.854;2023-04-25T03:03:45;10.20;;;5.43;;
3613;SDS011;1821;50.936;6.854;2023-04-25T03:04:28;9.88;;;5.93;;
3613;SDS011;1821;50.936;6.854;2023-04-25T03:05:09;12.43;;;5.38;;
3613;SDS011;1821;50.936;6.854;2023-04-25T03:05:52;14.13;;;5.80;;
3613;SDS011;1821;50.936;6.854;2023-04-25T03:06:34;11.50;;;5.18;;
3613;SDS011;1821;50.936;6.854;2023-04-25T03:07:15;11.68;;;5.50;;
3613;SDS011;1821;50.936;6.854;2023-04-25T03:07:57;10.60;;;5.15;;
3613;SDS011;1821;50.936;6.854;2023-04-25T03:08:39;13.18;;;5.18;;
3613;SDS011;1821;50.936;6.854;2023-04-25T03:09:22;12.53;;;5.20;;
3613;SDS011;1821;50.936;6.854;2023-04-25T03:10:06;14.38;;;6.53;;
3613;SDS011;1821;50.936;6.854;2023-04-25T03:10:50;12.68;;;5.57;;
3613;SDS011;1821;50.936;6.854;2023-04-25T03:11:34;18.55;;;5.88;;
3613;SDS011;1821;50.936;6.854;2023-04-25T03:12:17;13.15;;;5.30;;
3613;SDS011;1821;50.936;6.854;2023-04-25T03:12:58;12.23;;;5.38;;
3613;SDS011;1821;50.936;6.854;2023-04-25T03:13:42;14.48;;;5.50;;
3613;SDS011;1821;50.936;6.854;2023-04-25T03:14:24;14.85;;;5.00;;
3613;SDS011;1821;50.936;6.854;2023-04-25T03:15:06;10.80;;;5.65;;
3613;SDS011;1821;50.936;6.854;2023-04-25T03:15:48;12.00;;;5.30;;
3613;SDS011;1821;50.936;6.854;2023-04-25T03:16:33;10.43;;;5.32;;
3613;SDS011;1821;50.936;6.854;2023-04-25T03:17:15;10.27;;;5.72;;
3613;SDS011;1821;50.936;6.854;2023-04-25T03:17:57;10.00;;;5.03;;
3613;SDS011;1821;50.936;6.854;2023-04-25T03:18:39;12.70;;;5.93;;
3613;SDS011;1821;50.936;6.854;2023-04-25T03:19:21;15.45;;;6.00;;
3613;SDS011;1821;50.936;6.854;2023-04-25T03:20:03;11.40;;;6.00;;
3613;SDS011;1821;50.936;6.854;2023-04-25T03:20:45;11.25;;;5.78;;
3613;SDS011;1821;50.936;6.854;2023-04-25T03:21:27;9.50;;;5.20;;
3613;SDS011;1821;50.936;6.854;2023-04-25T03:22:10;12.20;;;5.80;;
3613;SDS011;1821;50.936;6.854;2023-04-25T03:22:52;12.38;;;5.82;;
3613;SDS011;1821;50.936;6.854;2023-04-25T03:23:34;11.30;;;6.43;;
3613;SDS011;1821;50.936;6.854;2023-04-25T03:24:18;10.55;;;5.65;;
3613;SDS011;1821;50.936;6.854;2023-04-25T03:25:00;8.80;;;5.30;;
3613;SDS011;1821;50.936;6.854;2023-04-25T03:25:42;11.85;;;5.05;;
3613;SDS011;1821;50.936;6.854;2023-04-25T03:26:26;11.73;;;5.25;;
3613;SDS011;1821;50.936;6.854;2023-04-25T03:27:08;12.25;;;5.00;;
3613;SDS011;1821;50.936;6.854;2023-04-25T03:27:50;12.50;;;5.72;;
3613;SDS011;1821;50.936;6.854;2023-04-25T03:28:32;12.07;;;5.75;;
3613;SDS011;1821;50.936;6.854;2023-04-25T03:29:16;13.80;;;5.90;;
3613;SDS011;1821;50.936;6.854;2023-04-25T03:29:58;11.25;;;4.97;;
3613;SDS011;1821;50.936;6.854;2023-04-25T03:30:43;14.77;;;5.28;;
3613;SDS011;1821;50.936;6.854;2023-04-25T03:31:25;13.45;;;5.75;;
3613;SDS011;1821;50.936;6.854;2023-04-25T03:32:07;10.73;;;5.15;;
3613;SDS011;1821;50.936;6.854;2023-04-25T03:32:50;10.50;;;5.32;;
3613;SDS011;1821;50.936;6.854;2023-04-25T03:33:32;13.13;;;5.53;;
3613;SDS011;1821;50.936;6.854;2023-04-25T03:34:16;13.95;;;6.35;;
3613;SDS011;1821;50.936;6.854;2023-04-25T03:34:58;16.70;;;5.88;;
3613;SDS011;1821;50.936;6.854;2023-04-25T03:35:39;15.05;;;5.82;;
3613;SDS011;1821;50.936;6.854;2023-04-25T03:36:21;12.27;;;5.40;;
3613;SDS011;1821;50.936;6.854;2023-04-25T03:37:03;13.55;;;5.72;;
3613;SDS011;1821;50.936;6.854;2023-04-25T03:37:45;14.98;;;6.07;;
3613;SDS011;1821;50.936;6.854;2023-04-25T03:38:27;14.88;;;6.15;;
3613;SDS011;1821;50.936;6.854;2023-04-25T03:39:09;10.93;;;5.47;;
3613;SDS011;1821;50.936;6.854;2023-04-25T03:39:51;12.63;;;6.10;;
3613;SDS011;1821;50.936;6.854;2023-04-25T03:40:33;12.02;;;5.85;;
3613;SDS011;1821;50.936;6.854;2023-04-25T03:41:15;15.07;;;5.60;;
3613;SDS011;1821;50.936;6.854;2023-04-25T03:41:57;13.15;;;6.00;;
3613;SDS011;1821;50.936;6.854;2023-04-25T03:42:41;9.52;;;4.93;;
3613;SDS011;1821;50.936;6.854;2023-04-25T03:43:25;13.20;;;5.70;;
3613;SDS011;1821;50.936;6.854;2023-04-25T03:44:07;12.98;;;6.18;;
3613;SDS011;1821;50.936;6.854;2023-04-25T03:44:51;11.88;;;5.68;;
3613;SDS011;1821;50.936;6.854;2023-04-25T03:45:36;13.20;;;5.32;;
3613;SDS011;1821;50.936;6.854;2023-04-25T03:46:18;15.50;;;5.30;;
3613;SDS011;1821;50.936;6.854;2023-04-25T03:47:00;10.85;;;5.18;;
3613;SDS011;1821;50.936;6.854;2023-04-25T03:47:43;11.65;;;5.38;;
3613;SDS011;1821;50.936;6.854;2023-04-25T03:48:25;13.30;;;5.90;;
3613;SDS011;1821;50.936;6.854;2023-04-25T03:49:08;10.00;;;5.63;;
3613;SDS011;1821;50.936;6.854;2023-04-25T03:49:50;10.50;;;5.10;;
3613;SDS011;1821;50.936;6.854;2023-04-25T03:50:33;13.45;;;5.43;;
3613;SDS011;1821;50.936;6.854;2023-04-25T03:51:15;12.90;;;5.93;;
3613;SDS011;1821;50.936;6.854;2023-04-25T03:51:57;10.70;;;5.93;;
3613;SDS011;1821;50.936;6.854;2023-04-25T03:52:42;12.15;;;5.90;;
3613;SDS011;1821;50.936;6.854;2023-04-25T03:53:25;11.13;;;5.50;;
3613;SDS011;1821;50.936;6.854;2023-04-25T03:54:07;11.23;;;5.72;;
3613;SDS011;1821;50.936;6.854;2023-04-25T03:54:51;13.13;;;6.50;;
3613;SDS011;1821;50.936;6.854;2023-04-25T03:55:33;12.55;;;5.30;;
3613;SDS011;1821;50.936;6.854;2023-04-25T03:56:14;16.27;;;5.63;;
3613;SDS011;1821;50.936;6.854;2023-04-25T03:56:57;12.75;;;5.40;;
3613;SDS011;1821;50.936;6.854;2023-04-25T03:57:39;10.65;;;5.10;;
3613;SDS011;1821;50.936;6.854;2023-04-25T03:58:23;11.93;;;5.28;;
3613;SDS011;1821;50.936;6.854;2023-04-25T03:59:05;12.15;;;5.82;;
3613;SDS011;1821;50.936;6.854;2023-04-25T03:59:47;13.30;;;6.30;;
3613;SDS011;1821;50.936;6.854;2023-04-25T04:00:29;12.55;;;5.93;;
3613;SDS011;1821;50.936;6.854;2023-04-25T04:01:11;11.52;;;5.25;;
3613;SDS011;1821;50.936;6.854;2023-04-25T04:01:53;10.65;;;5.50;;
3613;SDS011;1821;50.936;6.854;2023-04-25T04:02:38;12.25;;;6.40;;
3613;SDS011;1821;50.936;6.854;2023-04-25T04:03:23;11.20;;;5.70;;
3613;SDS011;1821;50.936;6.854;2023-04-25T04:04:06;12.20;;;5.35;;
3613;SDS011;1821;50.936;6.854;2023-04-25T04:04:48;16.63;;;6.53;;
3613;SDS011;1821;50.936;6.854;2023-04-25T04:05:31;14.68;;;5.82;;
3613;SDS011;1821;50.936;6.854;2023-04-25T04:06:14;16.40;;;5.97;;
3613;SDS011;1821;50.936;6.854;2023-04-25T04:06:58;12.35;;;5.80;;
3613;SDS011;1821;50.936;6.854;2023-04-25T04:07:41;11.10;;;6.22;;
3613;SDS011;1821;50.936;6.854;2023-04-25T04:08:24;11.23;;;5.80;;
3613;SDS011;1821;50.936;6.854;2023-04-25T04:09:08;11.55;;;5.68;;
3613;SDS011;1821;50.936;6.854;2023-04-25T04:09:52;12.25;;;5.63;;
3613;SDS011;1821;50.936;6.854;2023-04-25T04:10:34;9.40;;;5.00;;
3613;SDS011;1821;50.936;6.854;2023-04-25T04:11:18;13.20;;;6.32;;
3613;SDS011;1821;50.936;6.854;2023-04-25T04:12:01;13.02;;;6.78;;
3613;SDS011;1821;50.936;6.854;2023-04-25T04:12:43;12.35;;;6.10;;
3613;SDS011;1821;50.936;6.854;2023-04-25T04:13:25;12.32;;;5.75;;
3613;SDS011;1821;50.936;6.854;2023-04-25T04:14:08;13.95;;;5.90;;
3613;SDS011;1821;50.936;6.854;2023-04-25T04:14:51;12.45;;;5.38;;
3613;SDS011;1821;50.936;6.854;2023-04-25T04:15:33;11.77;;;5.30;;
3613;SDS011;1821;50.936;6.854;2023-04-25T04:16:15;12.80;;;5.50;;
3613;SDS011;1821;50.936;6.854;2023-04-25T04:16:57;15.27;;;6.22;;
3613;SDS011;1821;50.936;6.854;2023-04-25T04:17:41;12.90;;;5.80;;
3613;SDS011;1821;50.936;6.854;2023-04-25T04:18:23;15.57;;;6.25;;
3613;SDS011;1821;50.936;6.854;2023-04-25T04:19:08;12.05;;;5.28;;
3613;SDS011;1821;50.936;6.854;2023-04-25T04:19:49;11.55;;;5.60;;
3613;SDS011;1821;50.936;6.854;2023-04-25T04:20:31;11.13;;;6.40;;
3613;SDS011;1821;50.936;6.854;2023-04-25T04:21:13;9.98;;;6.38;;